Time;durP1;ratioP1;P1;durP2;ratioP2;P2;SDS_P1;SDS_P2;PMS_P1;PMS_P2;Temp;Humidity;BMP_temperature;BMP_pressure;BME280_temperature;BME280_humidity;BME280_pressure;Samples;Min_cycle;Max_cycle;Signal;HPM_P1;HPM_P2
2022/09/04 00:01:20;;;;;;;9.60;7.53;;;;;;;;;;5021473;28;20413;-72
2022/09/04 00:03:58;;;;;;;9.98;9.02;;;;;;;;;;5009182;28;20812;-73
2022/09/04 00:06:27;;;;;;;8.30;7.50;;;;;;;;;;5008535;28;20223;-73
2022/09/04 00:09:06;;;;;;;8.95;8.15;;;;;;;;;;5019903;28;20178;-73
2022/09/04 00:11:47;;;;;;;10.90;9.77;;;;;;;;;;5020003;28;20660;-73
2022/09/04 00:14:16;;;;;;;11.23;10.13;;;;;;;;;;5020274;28;20761;-73
2022/09/04 00:16:41;;;;;;;11.38;10.30;;;;;;;;;;5015762;28;20219;-73
2022/09/04 00:19:06;;;;;;;10.93;9.85;;;;;;;;;;5014926;28;20171;-73
2022/09/04 00:21:43;;;;;;;14.32;9.07;;;;;;;;;;5017499;28;20670;-73
2022/09/04 00:24:16;;;;;;;11.13;10.05;;;;;;;;;;5021845;28;20459;-73
2022/09/04 00:26:55;;;;;;;10.50;8.75;;;;;;;;;;5016673;28;20684;-73
2022/09/04 00:29:20;;;;;;;12.77;9.40;;;;;;;;;;5018856;28;20187;-73
2022/09/04 00:31:49;;;;;;;10.55;9.45;;;;;;;;;;5011921;28;20220;-73
2022/09/04 00:34:24;;;;;;;11.52;10.43;;;;;;;;;;5013124;28;20962;-73
2022/09/04 00:36:51;;;;;;;10.75;9.68;;;;;;;;;;5004440;28;20183;-73
2022/09/04 00:39:27;;;;;;;10.95;9.48;;;;;;;;;;5008119;28;20672;-73
2022/09/04 00:42:06;;;;;;;10.32;9.32;;;;;;;;;;5002093;28;20178;-73
2022/09/04 00:44:34;;;;;;;10.70;8.38;;;;;;;;;;5010281;28;20178;-73
2022/09/04 00:47:05;;;;;;;11.80;10.60;;;;;;;;;;5010730;28;20665;-73
2022/09/04 00:49:43;;;;;;;11.80;9.90;;;;;;;;;;5005503;28;20178;-73
2022/09/04 00:52:08;;;;;;;12.32;11.13;;;;;;;;;;5027123;28;20182;-73
2022/09/04 00:54:39;;;;;;;14.15;12.20;;;;;;;;;;5008735;28;20294;-72
2022/09/04 00:57:05;;;;;;;13.23;11.93;;;;;;;;;;5009465;28;20266;-73
2022/09/04 00:59:33;;;;;;;15.13;13.55;;;;;;;;;;5007674;28;20696;-73
2022/09/04 01:02:02;;;;;;;13.63;11.95;;;;;;;;;;5005953;28;20194;-73
2022/09/04 01:04:30;;;;;;;14.38;12.95;;;;;;;;;;5018036;28;20237;-73
2022/09/04 01:07:04;;;;;;;12.82;11.38;;;;;;;;;;5010270;28;20563;-73
2022/09/04 01:09:41;;;;;;;12.63;11.18;;;;;;;;;;5010591;28;20464;-73
2022/09/04 01:12:18;;;;;;;12.50;11.20;;;;;;;;;;5020756;28;20227;-73
2022/09/04 01:15:02;;;;;;;11.98;10.88;;;;;;;;;;5004440;28;20214;-73
2022/09/04 01:17:32;;;;;;;15.55;12.15;;;;;;;;;;5007492;28;20534;-73
2022/09/04 01:19:58;;;;;;;13.68;12.27;;;;;;;;;;5012083;28;20174;-73
2022/09/04 01:22:29;;;;;;;13.30;12.02;;;;;;;;;;5011621;28;20262;-73
2022/09/04 01:25:04;;;;;;;13.48;12.02;;;;;;;;;;5012714;28;20715;-73
2022/09/04 01:27:39;;;;;;;14.15;12.75;;;;;;;;;;5008078;28;20175;-73
2022/09/04 01:30:05;;;;;;;15.18;13.57;;;;;;;;;;5017903;28;20197;-73
2022/09/04 01:32:30;;;;;;;14.82;12.95;;;;;;;;;;5005772;28;20191;-73
2022/09/04 01:35:02;;;;;;;16.87;14.50;;;;;;;;;;5009397;28;20583;-73
2022/09/04 01:37:48;;;;;;;15.82;14.25;;;;;;;;;;5012448;28;20563;-73
2022/09/04 01:40:19;;;;;;;15.75;14.05;;;;;;;;;;5008697;28;20187;-73
2022/09/04 01:42:52;;;;;;;17.88;15.95;;;;;;;;;;5011037;28;20637;-73
2022/09/04 01:45:24;;;;;;;14.65;12.93;;;;;;;;;;5008343;28;20691;-73
2022/09/04 01:47:54;;;;;;;16.80;14.25;;;;;;;;;;5001346;28;20179;-73
2022/09/04 01:50:22;;;;;;;15.20;12.68;;;;;;;;;;5009701;28;20183;-74
2022/09/04 01:52:47;;;;;;;16.65;14.23;;;;;;;;;;5002667;28;20179;-73
2022/09/04 01:55:18;;;;;;;16.27;14.53;;;;;;;;;;5010680;28;20333;-73
2022/09/04 01:57:47;;;;;;;15.27;13.63;;;;;;;;;;5011688;28;20455;-73
2022/09/04 02:00:16;;;;;;;14.25;12.85;;;;;;;;;;5008727;28;20175;-73
2022/09/04 02:02:52;;;;;;;17.75;15.93;;;;;;;;;;5008352;28;20178;-73
2022/09/04 02:05:20;;;;;;;16.38;13.88;;;;;;;;;;5005628;28;20283;-73
2022/09/04 02:07:54;;;;;;;14.45;12.95;;;;;;;;;;5011565;28;20183;-73
2022/09/04 02:10:31;;;;;;;15.27;12.93;;;;;;;;;;5010088;28;20183;-73
2022/09/04 02:13:06;;;;;;;16.75;14.98;;;;;;;;;;5005485;28;20222;-73
2022/09/04 02:15:37;;;;;;;17.23;13.65;;;;;;;;;;5009642;28;20260;-73
2022/09/04 02:18:02;;;;;;;17.08;15.13;;;;;;;;;;5007050;28;20173;-74
2022/09/04 02:20:29;;;;;;;18.23;15.05;;;;;;;;;;5017632;28;20167;-72
2022/09/04 02:23:13;;;;;;;19.60;17.02;;;;;;;;;;5003922;28;20270;-73
2022/09/04 02:25:50;;;;;;;18.83;16.63;;;;;;;;;;5008944;28;20289;-72
2022/09/04 02:28:22;;;;;;;18.48;16.27;;;;;;;;;;5000965;28;20228;-73
2022/09/04 02:30:49;;;;;;;21.40;17.17;;;;;;;;;;4999327;28;20191;-73
2022/09/04 02:33:44;;;;;;;17.80;15.80;;;;;;;;;;5004958;28;20195;-73
2022/09/04 02:36:15;;;;;;;16.95;15.30;;;;;;;;;;5000801;28;20211;-73
2022/09/04 02:38:45;;;;;;;18.10;16.15;;;;;;;;;;5008950;28;20175;-73
2022/09/04 02:41:22;;;;;;;20.48;17.88;;;;;;;;;;5011297;28;20179;-73
2022/09/04 02:44:00;;;;;;;18.75;16.80;;;;;;;;;;5007012;28;20290;-73
2022/09/04 02:46:25;;;;;;;20.42;18.23;;;;;;;;;;5010780;28;20202;-73
2022/09/04 02:48:54;;;;;;;20.98;18.73;;;;;;;;;;5012478;28;20552;-74
2022/09/04 02:51:37;;;;;;;23.95;18.63;;;;;;;;;;5010688;28;20273;-73
2022/09/04 02:54:09;;;;;;;21.20;18.00;;;;;;;;;;5010870;28;20707;-74
2022/09/04 02:56:58;;;;;;;22.08;19.45;;;;;;;;;;5011257;28;20203;-73
2022/09/04 02:59:38;;;;;;;21.15;18.92;;;;;;;;;;5001500;28;20532;-73
2022/09/04 03:02:07;;;;;;;22.73;19.60;;;;;;;;;;5008308;28;20183;-73
2022/09/04 03:04:32;;;;;;;20.98;18.77;;;;;;;;;;5010695;28;20175;-73
2022/09/04 03:07:09;;;;;;;21.35;19.23;;;;;;;;;;5009799;28;20186;-75
2022/09/04 03:09:40;;;;;;;23.00;19.90;;;;;;;;;;5004716;28;20179;-75
2022/09/04 03:12:25;;;;;;;25.00;20.23;;;;;;;;;;5009657;28;20181;-72
2022/09/04 03:14:57;;;;;;;22.40;18.13;;;;;;;;;;5009938;28;20203;-75
2022/09/04 03:17:26;;;;;;;21.92;17.73;;;;;;;;;;5023578;28;20666;-74
2022/09/04 03:20:01;;;;;;;22.95;19.48;;;;;;;;;;5007113;28;20180;-74
2022/09/04 03:22:29;;;;;;;20.25;18.05;;;;;;;;;;5010083;28;20202;-74
2022/09/04 03:24:54;;;;;;;22.15;18.20;;;;;;;;;;5016002;28;20199;-74
2022/09/04 03:27:19;;;;;;;19.43;17.43;;;;;;;;;;5009560;28;20449;-74
2022/09/04 03:30:00;;;;;;;22.70;19.20;;;;;;;;;;5009278;28;20432;-75
2022/09/04 03:32:27;;;;;;;21.65;18.25;;;;;;;;;;5009535;28;20257;-74
2022/09/04 03:35:02;;;;;;;23.75;19.98;;;;;;;;;;5000443;28;20228;-75
2022/09/04 03:37:31;;;;;;;22.92;20.48;;;;;;;;;;5002429;28;20707;-75
2022/09/04 03:40:15;;;;;;;24.45;19.63;;;;;;;;;;4986338;28;20665;-75
2022/09/04 03:42:40;;;;;;;24.25;20.65;;;;;;;;;;4996468;28;20182;-74
2022/09/04 03:45:19;;;;;;;23.90;20.15;;;;;;;;;;4994641;28;20257;-74
2022/09/04 03:47:44;;;;;;;23.65;20.58;;;;;;;;;;5004742;28;20563;-74
2022/09/04 03:50:29;;;;;;;23.27;19.77;;;;;;;;;;5008377;28;20266;-75
2022/09/04 03:53:09;;;;;;;21.63;19.30;;;;;;;;;;5008084;28;20515;-74
2022/09/04 03:55:35;;;;;;;22.05;18.70;;;;;;;;;;5007003;28;20218;-72
2022/09/04 03:58:18;;;;;;;26.25;20.58;;;;;;;;;;5007404;28;20234;-73
2022/09/04 04:01:03;;;;;;;23.98;18.60;;;;;;;;;;5007021;28;20171;-75
2022/09/04 04:03:43;;;;;;;23.15;20.65;;;;;;;;;;5010833;28;20171;-75
2022/09/04 04:06:16;;;;;;;23.15;20.65;;;;;;;;;;5007183;28;20321;-74
2022/09/04 04:08:47;;;;;;;21.45;19.15;;;;;;;;;;5006035;28;20618;-74
2022/09/04 04:11:44;;;;;;;22.67;20.23;;;;;;;;;;5006821;28;20186;-74
2022/09/04 04:14:34;;;;;;;25.38;19.65;;;;;;;;;;4997975;28;20685;-74
2022/09/04 04:17:18;;;;;;;23.88;20.23;;;;;;;;;;5007395;28;20261;-74
2022/09/04 04:19:49;;;;;;;23.55;19.58;;;;;;;;;;5008822;28;20602;-74
2022/09/04 04:22:14;;;;;;;23.23;20.63;;;;;;;;;;5010028;28;20270;-74
2022/09/04 04:24:46;;;;;;;22.58;18.13;;;;;;;;;;5009120;28;20278;-75
2022/09/04 04:27:14;;;;;;;22.90;18.48;;;;;;;;;;5007890;28;21007;-74
2022/09/04 04:29:52;;;;;;;24.00;18.85;;;;;;;;;;5007853;28;20180;-74
2022/09/04 04:32:24;;;;;;;22.05;19.65;;;;;;;;;;5002146;28;20645;-75
2022/09/04 04:34:49;;;;;;;20.25;17.45;;;;;;;;;;5009461;28;20215;-74
2022/09/04 04:37:42;;;;;;;23.70;19.52;;;;;;;;;;5008837;28;20196;-73
2022/09/04 04:40:18;;;;;;;20.52;18.33;;;;;;;;;;4994931;28;20179;-75
2022/09/04 04:42:43;;;;;;;22.05;18.75;;;;;;;;;;5009236;28;20254;-74
2022/09/04 04:48:13;;;;;;;21.23;18.02;;;;;;;;;;5006646;28;20443;-74
2022/09/04 04:50:39;;;;;;;23.17;18.98;;;;;;;;;;5010653;28;20179;-75
2022/09/04 04:53:13;;;;;;;17.95;16.05;;;;;;;;;;5009902;28;20183;-74
2022/09/04 04:55:49;;;;;;;19.65;17.55;;;;;;;;;;5012339;28;20208;-75
2022/09/04 04:58:26;;;;;;;25.92;19.02;;;;;;;;;;5009096;28;20565;-75
2022/09/04 05:01:03;;;;;;;23.27;19.13;;;;;;;;;;5010974;28;20202;-74
2022/09/04 05:03:52;;;;;;;22.45;19.42;;;;;;;;;;5010812;28;20183;-74
2022/09/04 05:06:23;;;;;;;25.00;19.73;;;;;;;;;;5011601;28;20623;-75
2022/09/04 05:08:53;;;;;;;21.25;18.83;;;;;;;;;;5011666;28;20302;-74
2022/09/04 05:11:34;;;;;;;22.95;19.70;;;;;;;;;;5010699;28;20250;-74
2022/09/04 05:14:09;;;;;;;22.23;19.27;;;;;;;;;;5011578;28;20202;-75
2022/09/04 05:16:46;;;;;;;24.05;19.33;;;;;;;;;;5018142;28;20202;-74
2022/09/04 05:19:27;;;;;;;23.20;19.70;;;;;;;;;;5014438;28;20692;-74
2022/09/04 05:21:53;;;;;;;23.27;19.25;;;;;;;;;;5009255;28;20263;-75
2022/09/04 05:24:44;;;;;;;23.77;17.37;;;;;;;;;;5011095;28;20624;-75
2022/09/04 05:27:19;;;;;;;22.13;19.60;;;;;;;;;;5009641;28;20467;-74
2022/09/04 05:29:50;;;;;;;21.23;18.45;;;;;;;;;;5009182;28;20668;-74
2022/09/04 05:32:21;;;;;;;24.85;19.15;;;;;;;;;;5007484;28;20182;-74
2022/09/04 05:34:50;;;;;;;20.30;17.67;;;;;;;;;;5010736;28;20210;-76
2022/09/04 05:37:22;;;;;;;22.73;18.40;;;;;;;;;;5010773;28;20229;-74
2022/09/04 05:40:07;;;;;;;20.92;17.50;;;;;;;;;;5008892;28;20201;-75
2022/09/04 05:42:32;;;;;;;22.00;18.90;;;;;;;;;;5009528;28;20222;-74
2022/09/04 05:45:30;;;;;;;21.17;19.00;;;;;;;;;;5012528;28;20697;-74
2022/09/04 05:47:55;;;;;;;21.27;18.83;;;;;;;;;;4981715;28;20519;-75
2022/09/04 05:50:20;;;;;;;23.42;20.15;;;;;;;;;;5009912;28;20265;-74
2022/09/04 05:53:04;;;;;;;28.08;21.45;;;;;;;;;;5008325;28;20487;-74
2022/09/04 05:55:48;;;;;;;24.73;20.13;;;;;;;;;;5009995;28;20198;-74
2022/09/04 05:58:32;;;;;;;30.08;21.38;;;;;;;;;;5012528;28;20587;-74
2022/09/04 06:00:59;;;;;;;21.13;18.35;;;;;;;;;;5001280;28;20187;-75
2022/09/04 06:03:27;;;;;;;22.80;20.30;;;;;;;;;;5011252;28;20265;-74
2022/09/04 06:06:11;;;;;;;22.17;19.77;;;;;;;;;;5012587;28;20265;-74
2022/09/04 06:08:46;;;;;;;22.98;18.73;;;;;;;;;;5012193;28;20664;-75
2022/09/04 06:11:30;;;;;;;21.60;18.88;;;;;;;;;;5010363;28;20197;-74
2022/09/04 06:14:04;;;;;;;21.45;18.20;;;;;;;;;;5010533;28;20281;-74
2022/09/04 06:16:33;;;;;;;20.60;17.10;;;;;;;;;;5008936;28;20206;-74
2022/09/04 06:19:01;;;;;;;20.33;18.05;;;;;;;;;;5012427;28;20175;-74
2022/09/04 06:21:45;;;;;;;22.00;18.08;;;;;;;;;;5007827;28;20310;-74
2022/09/04 06:24:29;;;;;;;21.55;18.75;;;;;;;;;;5010863;28;20187;-74
2022/09/04 06:26:54;;;;;;;19.50;17.55;;;;;;;;;;5009906;28;20197;-75
2022/09/04 06:29:34;;;;;;;21.87;18.53;;;;;;;;;;5005964;28;20179;-74
2022/09/04 06:32:18;;;;;;;17.60;15.80;;;;;;;;;;5011416;28;20871;-74
2022/09/04 06:35:02;;;;;;;22.17;19.17;;;;;;;;;;5010861;28;20500;-74
2022/09/04 06:37:27;;;;;;;18.55;16.63;;;;;;;;;;5011176;28;20183;-74
2022/09/04 06:40:08;;;;;;;21.08;17.40;;;;;;;;;;5010394;28;20199;-74
2022/09/04 06:42:39;;;;;;;18.58;16.35;;;;;;;;;;5010219;28;20182;-74
2022/09/04 06:45:08;;;;;;;18.88;16.88;;;;;;;;;;5006615;28;20207;-74
2022/09/04 06:47:40;;;;;;;16.98;15.30;;;;;;;;;;5010514;28;20198;-74
2022/09/04 06:50:13;;;;;;;22.88;17.30;;;;;;;;;;5010341;28;20191;-74
2022/09/04 06:52:45;;;;;;;20.45;17.70;;;;;;;;;;5009952;28;20186;-74
2022/09/04 06:55:19;;;;;;;20.13;18.08;;;;;;;;;;5009147;28;20585;-74
2022/09/04 06:57:53;;;;;;;19.70;17.40;;;;;;;;;;5006012;28;20214;-74
2022/09/04 07:00:19;;;;;;;19.25;17.25;;;;;;;;;;5006868;28;20182;-74
2022/09/04 07:02:50;;;;;;;17.95;15.93;;;;;;;;;;5000043;28;20179;-74
2022/09/04 07:05:15;;;;;;;19.85;16.35;;;;;;;;;;5009227;28;20695;-73
2022/09/04 07:07:51;;;;;;;17.83;14.93;;;;;;;;;;5009882;28;20193;-73
2022/09/04 07:10:23;;;;;;;17.55;15.85;;;;;;;;;;5008384;28;20212;-73
2022/09/04 07:13:03;;;;;;;16.98;15.23;;;;;;;;;;5002100;28;20190;-73
2022/09/04 07:15:55;;;;;;;18.15;16.17;;;;;;;;;;5010461;28;20676;-73
2022/09/04 07:18:33;;;;;;;17.23;15.50;;;;;;;;;;5005202;28;20278;-73
2022/09/04 07:21:15;;;;;;;16.65;15.00;;;;;;;;;;5009390;28;20182;-73
2022/09/04 07:23:49;;;;;;;17.48;15.13;;;;;;;;;;5005162;28;20207;-72
2022/09/04 07:26:36;;;;;;;15.35;13.82;;;;;;;;;;5003982;28;20194;-73
2022/09/04 07:29:04;;;;;;;14.40;12.90;;;;;;;;;;5006685;28;20175;-73
2022/09/04 07:31:29;;;;;;;17.50;14.45;;;;;;;;;;5007097;28;20225;-73
2022/09/04 07:34:02;;;;;;;16.47;14.57;;;;;;;;;;5004721;28;20195;-73
2022/09/04 07:36:47;;;;;;;16.50;14.77;;;;;;;;;;5009899;28;20539;-73
2022/09/04 07:39:47;;;;;;;15.02;13.45;;;;;;;;;;5007830;28;20264;-73
2022/09/04 07:42:37;;;;;;;15.40;13.73;;;;;;;;;;4968871;28;20177;-73
2022/09/04 07:45:29;;;;;;;15.85;13.70;;;;;;;;;;5005503;28;20215;-73
2022/09/04 07:47:54;;;;;;;17.17;14.48;;;;;;;;;;5006084;28;20203;-73
2022/09/04 07:50:20;;;;;;;18.75;16.35;;;;;;;;;;5008504;28;20202;-73
2022/09/04 07:53:14;;;;;;;15.27;13.63;;;;;;;;;;5009173;28;20556;-73
2022/09/04 07:55:42;;;;;;;15.18;13.68;;;;;;;;;;4973242;28;20466;-73
2022/09/04 07:58:10;;;;;;;16.42;14.50;;;;;;;;;;5008377;28;20171;-73
2022/09/04 08:00:47;;;;;;;16.67;14.98;;;;;;;;;;5007125;28;20183;-74
2022/09/04 08:03:12;;;;;;;15.65;14.07;;;;;;;;;;5004285;28;20175;-73
2022/09/04 08:05:39;;;;;;;17.43;15.67;;;;;;;;;;5006353;28;20237;-73
2022/09/04 08:08:09;;;;;;;16.38;14.65;;;;;;;;;;5006580;28;20545;-73
2022/09/04 08:10:49;;;;;;;15.50;13.90;;;;;;;;;;5010362;28;20661;-74
2022/09/04 08:13:32;;;;;;;15.57;14.05;;;;;;;;;;5010801;28;20660;-73
2022/09/04 08:15:57;;;;;;;14.93;13.55;;;;;;;;;;5016001;28;20210;-73
2022/09/04 08:18:25;;;;;;;16.80;15.03;;;;;;;;;;5014936;28;20563;-73
2022/09/04 08:20:56;;;;;;;16.90;14.15;;;;;;;;;;5014301;28;20179;-74
2022/09/04 08:23:54;;;;;;;14.88;13.30;;;;;;;;;;5011976;28;20174;-73
2022/09/04 08:26:38;;;;;;;13.18;11.98;;;;;;;;;;5001886;28;20206;-73
2022/09/04 08:29:03;;;;;;;15.57;14.05;;;;;;;;;;5011777;28;20183;-73
2022/09/04 08:31:30;;;;;;;14.83;13.33;;;;;;;;;;5026094;28;20548;-73
2022/09/04 08:34:07;;;;;;;15.38;13.90;;;;;;;;;;5013750;28;20448;-73
2022/09/04 08:36:42;;;;;;;13.98;12.57;;;;;;;;;;5024475;28;20194;-72
2022/09/04 08:39:19;;;;;;;14.88;13.25;;;;;;;;;;5014032;28;20171;-73
2022/09/04 08:42:04;;;;;;;14.05;12.65;;;;;;;;;;5007411;28;20180;-73
2022/09/04 08:44:47;;;;;;;14.02;12.73;;;;;;;;;;5006571;28;20186;-73
2022/09/04 08:47:13;;;;;;;14.23;12.88;;;;;;;;;;5012903;28;20190;-73
2022/09/04 08:49:57;;;;;;;14.15;12.65;;;;;;;;;;5011906;28;20578;-73
2022/09/04 08:52:44;;;;;;;12.00;10.90;;;;;;;;;;5011408;28;20262;-73
2022/09/04 08:55:28;;;;;;;13.40;12.10;;;;;;;;;;5013078;28;20206;-72
2022/09/04 08:58:12;;;;;;;13.20;11.90;;;;;;;;;;5013995;28;20187;-72
2022/09/04 09:00:49;;;;;;;25.95;12.50;;;;;;;;;;5009972;28;20187;-72
2022/09/04 09:03:28;;;;;;;14.55;13.05;;;;;;;;;;5006739;28;20227;-72
2022/09/04 09:06:12;;;;;;;13.73;12.43;;;;;;;;;;5006755;28;20233;-72
2022/09/04 09:08:37;;;;;;;12.95;11.63;;;;;;;;;;5013737;28;20198;-72
2022/09/04 09:11:25;;;;;;;12.27;11.13;;;;;;;;;;5012779;28;20171;-72
2022/09/04 09:14:09;;;;;;;10.88;9.88;;;;;;;;;;5013970;28;20458;-72
2022/09/04 09:16:41;;;;;;;11.98;9.68;;;;;;;;;;5021773;28;20607;-72
2022/09/04 09:19:07;;;;;;;11.18;10.05;;;;;;;;;;5012748;28;20614;-72
2022/09/04 09:21:37;;;;;;;10.27;9.27;;;;;;;;;;5017497;28;20262;-72
2022/09/04 09:24:13;;;;;;;9.98;8.98;;;;;;;;;;5004570;28;20179;-73
2022/09/04 09:26:44;;;;;;;9.88;8.98;;;;;;;;;;5005315;28;20198;-72
2022/09/04 09:29:15;;;;;;;9.02;8.18;;;;;;;;;;5005767;28;20688;-72
2022/09/04 09:31:50;;;;;;;8.48;7.47;;;;;;;;;;5013334;28;20656;-72
2022/09/04 09:34:27;;;;;;;8.70;7.80;;;;;;;;;;5008085;28;20197;-73
2022/09/04 09:37:05;;;;;;;8.05;7.10;;;;;;;;;;5012344;28;20178;-72
2022/09/04 09:39:37;;;;;;;6.03;5.53;;;;;;;;;;5007753;28;20560;-72
2022/09/04 09:42:22;;;;;;;9.48;6.22;;;;;;;;;;5010658;28;20179;-72
2022/09/04 09:44:47;;;;;;;7.57;6.80;;;;;;;;;;5007581;28;20242;-72
2022/09/04 09:47:15;;;;;;;7.85;7.05;;;;;;;;;;5009685;28;20210;-72
2022/09/04 09:49:40;;;;;;;7.78;6.78;;;;;;;;;;5005658;28;20293;-73
2022/09/04 09:52:23;;;;;;;6.90;6.20;;;;;;;;;;5011709;28;20258;-73
2022/09/04 09:54:54;;;;;;;7.95;6.18;;;;;;;;;;5007965;28;20261;-73
2022/09/04 09:57:38;;;;;;;6.70;5.18;;;;;;;;;;5009977;28;20175;-72
2022/09/04 10:00:09;;;;;;;8.23;7.32;;;;;;;;;;5007009;28;20262;-72
2022/09/04 10:02:40;;;;;;;7.50;6.55;;;;;;;;;;5007521;28;20179;-72
2022/09/04 10:05:18;;;;;;;6.40;5.78;;;;;;;;;;5001994;28;20216;-72
2022/09/04 10:08:09;;;;;;;6.80;5.32;;;;;;;;;;5004886;28;20245;-72
2022/09/04 10:10:40;;;;;;;6.32;5.72;;;;;;;;;;4998013;28;20195;-72
2022/09/04 10:13:18;;;;;;;6.05;4.32;;;;;;;;;;5009565;28;20560;-72
2022/09/04 10:15:59;;;;;;;5.15;4.68;;;;;;;;;;5004442;28;20253;-71
2022/09/04 10:18:34;;;;;;;5.15;4.65;;;;;;;;;;5006121;28;20221;-72
2022/09/04 10:20:59;;;;;;;4.57;4.18;;;;;;;;;;5010485;28;20236;-72
2022/09/04 10:23:43;;;;;;;6.38;5.03;;;;;;;;;;5005769;28;20182;-72
2022/09/04 10:26:14;;;;;;;5.40;4.90;;;;;;;;;;5003642;28;20199;-72
2022/09/04 10:28:48;;;;;;;5.18;4.40;;;;;;;;;;5010730;28;20234;-72
2022/09/04 10:31:22;;;;;;;3.85;3.45;;;;;;;;;;5005271;28;20190;-72
2022/09/04 10:33:59;;;;;;;5.35;3.78;;;;;;;;;;5001982;28;20250;-72
2022/09/04 10:36:30;;;;;;;3.60;3.28;;;;;;;;;;5001813;28;20644;-72
2022/09/04 10:41:54;;;;;;;3.92;3.53;;;;;;;;;;5006279;28;20197;-72
2022/09/04 10:44:27;;;;;;;3.97;3.67;;;;;;;;;;5016258;28;20178;-72
2022/09/04 10:47:05;;;;;;;3.65;3.25;;;;;;;;;;5010096;28;20640;-72
2022/09/04 10:49:49;;;;;;;5.03;3.50;;;;;;;;;;5005063;28;20178;-73
2022/09/04 10:52:33;;;;;;;3.17;2.85;;;;;;;;;;5010439;28;20245;-72
2022/09/04 10:55:17;;;;;;;2.95;2.65;;;;;;;;;;5002510;28;20298;-73
2022/09/04 10:57:46;;;;;;;3.92;3.53;;;;;;;;;;4999627;28;20277;-73
2022/09/04 11:00:15;;;;;;;3.63;3.25;;;;;;;;;;5007635;28;20175;-72
2022/09/04 11:02:55;;;;;;;5.80;3.38;;;;;;;;;;5005535;28;20667;-72
2022/09/04 11:05:36;;;;;;;3.25;2.75;;;;;;;;;;5007310;28;20318;-72
2022/09/04 11:08:14;;;;;;;4.35;3.00;;;;;;;;;;5011346;28;20197;-72
2022/09/04 11:10:53;;;;;;;4.32;2.38;;;;;;;;;;5008956;28;20184;-73
2022/09/04 11:13:33;;;;;;;3.88;2.28;;;;;;;;;;5007176;28;20181;-72
2022/09/04 11:16:05;;;;;;;3.03;2.72;;;;;;;;;;5007067;28;20213;-72
2022/09/04 11:18:50;;;;;;;5.38;2.67;;;;;;;;;;5006478;28;20175;-72
2022/09/04 11:21:15;;;;;;;5.15;3.30;;;;;;;;;;5004950;28;20665;-72
2022/09/04 11:23:58;;;;;;;4.93;3.00;;;;;;;;;;5007394;28;20242;-73
2022/09/04 11:26:36;;;;;;;3.35;3.05;;;;;;;;;;5007633;28;20460;-73
2022/09/04 11:29:21;;;;;;;2.60;2.40;;;;;;;;;;5007870;28;20167;-73
2022/09/04 11:32:10;;;;;;;3.65;2.90;;;;;;;;;;5008459;28;20285;-73
2022/09/04 11:34:51;;;;;;;5.28;2.50;;;;;;;;;;5003213;28;20221;-73
2022/09/04 11:37:29;;;;;;;4.45;3.15;;;;;;;;;;5013987;28;20181;-73
2022/09/04 11:39:54;;;;;;;2.55;2.35;;;;;;;;;;5011184;28;20482;-72
2022/09/04 11:42:23;;;;;;;4.30;2.20;;;;;;;;;;5009905;28;20270;-73
2022/09/04 11:45:07;;;;;;;3.78;2.20;;;;;;;;;;5008070;28;20290;-73
2022/09/04 11:47:41;;;;;;;3.90;3.30;;;;;;;;;;5006890;28;20185;-73
2022/09/04 11:50:31;;;;;;;3.67;2.72;;;;;;;;;;5006617;28;20664;-71
2022/09/04 11:52:56;;;;;;;3.70;2.38;;;;;;;;;;5010328;28;20194;-72
2022/09/04 11:55:32;;;;;;;3.88;2.42;;;;;;;;;;5011390;28;20217;-72
2022/09/04 11:58:16;;;;;;;4.95;2.97;;;;;;;;;;5018280;28;20607;-72
2022/09/04 12:00:44;;;;;;;6.63;2.97;;;;;;;;;;5019052;28;20249;-72
2022/09/04 12:03:19;;;;;;;3.15;2.33;;;;;;;;;;5009448;28;20667;-73
2022/09/04 12:05:50;;;;;;;2.95;2.50;;;;;;;;;;5018240;28;20595;-72
2022/09/04 12:08:34;;;;;;;2.58;2.17;;;;;;;;;;5023973;28;20562;-72
2022/09/04 12:11:15;;;;;;;2.63;2.17;;;;;;;;;;5017828;28;20204;-72
2022/09/04 12:13:58;;;;;;;4.10;2.70;;;;;;;;;;5013640;28;20653;-72
2022/09/04 12:16:43;;;;;;;3.28;2.97;;;;;;;;;;5025112;28;20292;-72
2022/09/04 12:19:26;;;;;;;6.43;3.00;;;;;;;;;;5016034;28;20182;-72
2022/09/04 12:22:01;;;;;;;3.00;2.70;;;;;;;;;;5004284;28;20700;-73
2022/09/04 12:24:35;;;;;;;4.50;3.00;;;;;;;;;;5002866;28;20170;-73
2022/09/04 12:27:19;;;;;;;3.10;2.38;;;;;;;;;;5012613;28;20166;-73
2022/09/04 12:30:00;;;;;;;2.72;2.53;;;;;;;;;;5007115;28;20228;-72
2022/09/04 12:32:43;;;;;;;3.95;2.47;;;;;;;;;;5008453;28;20174;-72
2022/09/04 12:35:28;;;;;;;2.78;2.30;;;;;;;;;;5003465;28;20219;-72
2022/09/04 12:37:56;;;;;;;5.15;4.32;;;;;;;;;;5004043;28;20175;-73
2022/09/04 12:40:28;;;;;;;3.05;2.75;;;;;;;;;;5008223;28;20198;-72
2022/09/04 12:43:05;;;;;;;2.80;2.55;;;;;;;;;;5012227;28;20540;-73
2022/09/04 12:45:30;;;;;;;2.60;2.40;;;;;;;;;;5012044;28;20194;-72
2022/09/04 12:47:58;;;;;;;2.83;2.63;;;;;;;;;;5011332;28;20202;-72
2022/09/04 12:50:44;;;;;;;4.22;2.55;;;;;;;;;;5011066;28;20423;-72
2022/09/04 12:53:09;;;;;;;4.00;3.08;;;;;;;;;;5009724;28;20660;-72
2022/09/04 12:55:44;;;;;;;3.65;2.92;;;;;;;;;;5007593;28;20226;-73
2022/09/04 12:58:16;;;;;;;3.22;2.75;;;;;;;;;;5017700;28;20229;-73
2022/09/04 13:00:49;;;;;;;3.30;2.50;;;;;;;;;;5011494;28;20573;-73
2022/09/04 13:03:20;;;;;;;2.50;2.10;;;;;;;;;;5003579;28;20194;-73
2022/09/04 13:06:04;;;;;;;2.25;1.98;;;;;;;;;;5005799;28;20700;-72
2022/09/04 13:08:32;;;;;;;1.83;1.73;;;;;;;;;;5009694;28;20175;-73
2022/09/04 13:11:12;;;;;;;2.63;2.30;;;;;;;;;;5014209;28;20186;-73
2022/09/04 13:13:46;;;;;;;2.13;1.75;;;;;;;;;;5006353;28;20673;-72
2022/09/04 13:16:15;;;;;;;2.20;2.00;;;;;;;;;;5005027;28;20286;-72
2022/09/04 13:18:47;;;;;;;3.95;2.08;;;;;;;;;;5006778;28;20177;-73
2022/09/04 13:21:31;;;;;;;4.85;2.13;;;;;;;;;;5011245;28;20175;-72
2022/09/04 13:24:07;;;;;;;2.72;2.30;;;;;;;;;;5008834;28;20178;-73
2022/09/04 13:26:53;;;;;;;2.28;1.95;;;;;;;;;;5008735;28;20201;-73
2022/09/04 13:29:39;;;;;;;2.47;2.20;;;;;;;;;;5010761;28;20213;-73
2022/09/04 13:32:19;;;;;;;2.25;1.95;;;;;;;;;;5010080;28;20564;-73
2022/09/04 13:35:02;;;;;;;2.38;2.10;;;;;;;;;;5005555;28;20617;-72
2022/09/04 13:37:34;;;;;;;3.05;2.33;;;;;;;;;;5010218;28;20270;-72
2022/09/04 13:40:00;;;;;;;2.78;2.05;;;;;;;;;;5010607;28;20905;-73
2022/09/04 13:42:32;;;;;;;1.85;1.70;;;;;;;;;;5008488;28;20246;-72
2022/09/04 13:45:00;;;;;;;2.90;1.90;;;;;;;;;;5003966;28;20207;-72
2022/09/04 13:47:29;;;;;;;2.28;2.08;;;;;;;;;;5013904;28;20183;-73
2022/09/04 13:50:07;;;;;;;2.35;1.98;;;;;;;;;;5007922;28;20249;-74
2022/09/04 13:52:43;;;;;;;2.60;2.40;;;;;;;;;;5011961;28;20682;-73
2022/09/04 13:55:12;;;;;;;2.55;2.33;;;;;;;;;;5007568;28;20202;-73
2022/09/04 13:57:43;;;;;;;3.05;2.33;;;;;;;;;;5005658;28;20601;-73
2022/09/04 14:00:10;;;;;;;3.67;2.22;;;;;;;;;;5007059;28;20207;-73
2022/09/04 14:02:37;;;;;;;3.75;2.63;;;;;;;;;;5007336;28;20202;-73
2022/09/04 14:05:14;;;;;;;2.58;2.22;;;;;;;;;;5004216;28;20253;-73
2022/09/04 14:07:40;;;;;;;2.13;1.98;;;;;;;;;;5007154;28;20189;-73
2022/09/04 14:10:14;;;;;;;2.50;2.30;;;;;;;;;;5010170;28;20652;-73
2022/09/04 14:12:39;;;;;;;2.78;2.58;;;;;;;;;;5009394;28;20193;-73
2022/09/04 14:15:30;;;;;;;3.20;2.35;;;;;;;;;;5003065;28;20210;-73
2022/09/04 14:18:15;;;;;;;3.33;2.00;;;;;;;;;;5005999;28;20782;-74
2022/09/04 14:20:43;;;;;;;2.60;2.40;;;;;;;;;;5010064;28;20588;-73
2022/09/04 14:23:08;;;;;;;2.95;2.05;;;;;;;;;;5015818;28;20175;-73
2022/09/04 14:25:49;;;;;;;2.80;2.50;;;;;;;;;;5000845;28;20269;-73
2022/09/04 14:28:19;;;;;;;2.85;2.10;;;;;;;;;;5006422;28;20178;-73
2022/09/04 14:30:47;;;;;;;2.38;1.90;;;;;;;;;;5008132;28;20185;-73
2022/09/04 14:33:15;;;;;;;3.10;2.00;;;;;;;;;;5015325;28;20209;-73
2022/09/04 14:35:48;;;;;;;2.17;1.70;;;;;;;;;;5009826;28;20202;-73
2022/09/04 14:38:17;;;;;;;2.30;1.65;;;;;;;;;;5009176;28;20174;-73
2022/09/04 14:41:04;;;;;;;3.38;2.08;;;;;;;;;;5007588;28;20597;-74
2022/09/04 14:43:35;;;;;;;1.77;1.67;;;;;;;;;;4996651;28;20183;-73
2022/09/04 14:46:06;;;;;;;1.65;1.55;;;;;;;;;;5008813;28;20203;-73
2022/09/04 14:48:39;;;;;;;2.67;1.70;;;;;;;;;;5010223;28;20187;-73
2022/09/04 14:51:12;;;;;;;3.42;1.98;;;;;;;;;;5001770;28;20265;-73
2022/09/04 14:53:37;;;;;;;2.25;1.67;;;;;;;;;;5008358;28;20193;-73
2022/09/04 14:56:05;;;;;;;2.88;1.65;;;;;;;;;;5006503;28;20301;-73
2022/09/04 14:58:34;;;;;;;1.98;1.73;;;;;;;;;;5013584;28;20184;-73
2022/09/04 15:01:02;;;;;;;2.15;1.90;;;;;;;;;;5000705;28;20539;-73
2022/09/04 15:03:33;;;;;;;2.88;1.67;;;;;;;;;;5009230;28;20183;-74
2022/09/04 15:06:04;;;;;;;2.85;1.80;;;;;;;;;;5007129;28;20225;-73
2022/09/04 15:08:31;;;;;;;1.88;1.50;;;;;;;;;;5004284;28;20228;-73
2022/09/04 15:11:02;;;;;;;1.50;1.40;;;;;;;;;;4999906;28;20179;-73
2022/09/04 15:13:27;;;;;;;3.67;2.00;;;;;;;;;;5007827;28;20557;-73
2022/09/04 15:15:58;;;;;;;1.97;1.87;;;;;;;;;;5009723;28;20689;-73
2022/09/04 15:18:26;;;;;;;4.32;2.03;;;;;;;;;;5011339;28;20217;-73